Time,TemperatureF,DewpointF,PressureIn,WindDirection,WindDirectionDegrees,WindSpeedMPH,WindSpeedGustMPH,Humidity,HourlyPrecipIn,Conditions,Clouds,dailyrainin,SoftwareType,DateUTC
2013-11-26 00:11:00,40.4,38.0,30.30,SE,137,0.0,0.0,90,0.00,,,0.00,weatherlink.com 1.10,2013-11-26 08:11:00,
2013-11-26 00:26:00,40.2,38.0,30.29,SE,137,0.0,0.0,90,0.00,,,0.00,weatherlink.com 1.10,2013-11-26 08:26:00,
2013-11-26 00:41:00,40.0,38.0,30.29,SE,137,0.0,0.0,91,0.00,,,0.00,weatherlink.com 1.10,2013-11-26 08:41:00,
2013-11-26 00:56:00,39.8,37.0,30.30,SE,137,0.0,0.0,91,0.00,,,0.00,weatherlink.com 1.10,2013-11-26 08:56:00,
2013-11-26 01:11:00,39.7,37.0,30.30,SE,137,0.0,0.0,91,0.00,,,0.00,weatherlink.com 1.10,2013-11-26 09:11:00,
2013-11-26 01:26:00,39.5,37.0,30.30,SE,137,0.0,0.0,91,0.00,,,0.00,weatherlink.com 1.10,2013-11-26 09:26:00,
2013-11-26 01:41:00,39.5,37.0,30.30,SE,137,0.0,0.0,91,0.00,,,0.00,weatherlink.com 1.10,2013-11-26 09:41:00,
2013-11-26 01:56:00,39.2,37.0,30.29,SE,137,0.0,0.0,91,0.00,,,0.00,weatherlink.com 1.10,2013-11-26 09:56:00,
2013-11-26 02:11:00,39.1,37.0,30.29,SE,137,0.0,0.0,91,0.00,,,0.00,weatherlink.com 1.10,2013-11-26 10:11:00,
2013-11-26 02:26:00,39.0,37.0,30.29,SE,137,0.0,0.0,91,0.00,,,0.00,weatherlink.com 1.10,2013-11-26 10:26:00,
2013-11-26 02:41:00,38.7,37.0,30.29,SE,137,0.0,0.0,92,0.00,,,0.00,weatherlink.com 1.10,2013-11-26 10:41:00,
2013-11-26 02:56:00,38.4,36.0,30.29,SE,137,0.0,0.0,92,0.00,,,0.00,weatherlink.com 1.10,2013-11-26 10:56:00,
2013-11-26 03:11:00,38.3,36.0,30.29,SE,137,0.0,0.0,92,0.00,,,0.00,weatherlink.com 1.10,2013-11-26 11:11:00,
2013-11-26 03:26:00,38.1,36.0,30.28,SE,137,0.0,0.0,92,0.00,,,0.00,weatherlink.com 1.10,2013-11-26 11:26:00,
2013-11-26 03:41:00,38.4,36.0,30.27,SE,137,0.0,0.0,92,0.00,,,0.00,weatherlink.com 1.10,2013-11-26 11:41:00,
2013-11-26 03:56:00,38.6,37.0,30.27,SE,137,0.0,0.0,93,0.00,,,0.00,weatherlink.com 1.10,2013-11-26 11:56:00,
2013-11-26 04:11:00,38.6,37.0,30.27,SE,137,0.0,0.0,92,0.00,,,0.00,weatherlink.com 1.10,2013-11-26 12:11:00,
2013-11-26 04:26:00,39.0,37.0,30.27,SE,137,0.0,0.0,93,0.00,,,0.00,weatherlink.com 1.10,2013-11-26 12:26:00,
2013-11-26 04:41:00,39.1,37.0,30.27,SE,137,0.0,0.0,93,0.00,,,0.00,weatherlink.com 1.10,2013-11-26 12:41:00,
2013-11-26 04:56:00,39.1,37.0,30.27,SE,137,0.0,0.0,93,0.00,,,0.00,weatherlink.com 1.10,2013-11-26 12:56:00,
2013-11-26 05:11:00,39.2,37.0,30.27,SE,137,0.0,0.0,93,0.00,,,0.00,weatherlink.com 1.10,2013-11-26 13:11:00,
2013-11-26 05:26:00,39.2,37.0,30.28,SE,137,0.0,0.0,93,0.00,,,0.00,weatherlink.com 1.10,2013-11-26 13:26:00,
2013-11-26 05:41:00,39.0,37.0,30.27,SE,137,0.0,0.0,93,0.00,,,0.00,weatherlink.com 1.10,2013-11-26 13:41:00,
2013-11-26 05:56:00,38.8,37.0,30.27,SE,137,0.0,0.0,93,0.00,,,0.00,weatherlink.com 1.10,2013-11-26 13:56:00,
2013-11-26 06:11:00,38.8,37.0,30.27,SE,137,0.0,0.0,93,0.00,,,0.00,weatherlink.com 1.10,2013-11-26 14:11:00,
2013-11-26 06:26:00,38.8,37.0,30.27,SE,137,0.0,0.0,93,0.00,,,0.00,weatherlink.com 1.10,2013-11-26 14:26:00,
2013-11-26 06:41:00,38.7,37.0,30.27,SE,137,0.0,0.0,93,0.00,,,0.00,weatherlink.com 1.10,2013-11-26 14:41:00,
2013-11-26 06:56:00,38.9,37.0,30.27,SE,137,0.0,0.0,93,0.00,,,0.00,weatherlink.com 1.10,2013-11-26 14:56:00,
2013-11-26 07:11:00,38.8,37.0,30.27,SE,140,0.0,0.0,93,0.00,,,0.00,weatherlink.com 1.10,2013-11-26 15:11:00,
2013-11-26 07:26:00,38.7,37.0,30.27,SE,140,0.0,0.0,93,0.00,,,0.00,weatherlink.com 1.10,2013-11-26 15:26:00,
2013-11-26 07:41:00,38.7,37.0,30.28,SE,139,0.0,0.0,93,0.00,,,0.00,weatherlink.com 1.10,2013-11-26 15:41:00,
2013-11-26 07:56:00,38.9,37.0,30.28,SE,139,0.0,0.0,93,0.00,,,0.00,weatherlink.com 1.10,2013-11-26 15:56:00,
2013-11-26 08:11:00,39.5,38.0,30.28,SE,140,0.0,0.0,94,0.00,,,0.00,weatherlink.com 1.10,2013-11-26 16:11:00,
2013-11-26 08:26:00,40.0,39.0,30.29,SE,140,0.0,0.0,94,0.00,,,0.00,weatherlink.com 1.10,2013-11-26 16:26:00,
2013-11-26 08:41:00,41.5,40.0,30.28,SE,141,0.0,0.0,95,0.00,,,0.00,weatherlink.com 1.10,2013-11-26 16:41:00,
2013-11-26 08:56:00,44.0,42.0,30.28,SE,141,0.0,1.0,94,0.00,,,0.00,weatherlink.com 1.10,2013-11-26 16:56:00,
2013-11-26 09:12:00,46.3,44.0,30.28,SE,141,0.0,2.0,90,0.00,,,0.00,weatherlink.com 1.10,2013-11-26 17:12:00,
2013-11-26 09:27:00,48.5,44.0,30.28,SE,129,0.0,2.0,84,0.00,,,0.00,weatherlink.com 1.10,2013-11-26 17:27:00,
2013-11-26 09:42:00,49.4,44.0,30.28,SE,128,0.0,2.0,82,0.00,,,0.00,weatherlink.com 1.10,2013-11-26 17:42:00,
2013-11-26 09:57:00,50.6,45.0,30.28,SE,129,0.0,1.0,80,0.00,,,0.00,weatherlink.com 1.10,2013-11-26 17:57:00,
2013-11-26 10:12:00,52.8,45.0,30.27,SE,129,0.0,0.0,76,0.00,,,0.00,weatherlink.com 1.10,2013-11-26 18:12:00,
2013-11-26 10:27:00,54.0,46.0,30.27,SE,129,0.0,2.0,73,0.00,,,0.00,weatherlink.com 1.10,2013-11-26 18:27:00,
2013-11-26 10:42:00,56.0,46.0,30.25,SE,128,0.0,1.0,69,0.00,,,0.00,weatherlink.com 1.10,2013-11-26 18:42:00,
2013-11-26 10:57:00,56.9,46.0,30.25,SE,128,0.0,1.0,68,0.00,,,0.00,weatherlink.com 1.10,2013-11-26 18:57:00,
2013-11-26 11:12:00,57.1,45.0,30.24,SE,126,0.0,4.0,65,0.00,,,0.00,weatherlink.com 1.10,2013-11-26 19:12:00,
2013-11-26 11:27:00,59.1,47.0,30.23,ESE,119,0.0,1.0,64,0.00,,,0.00,weatherlink.com 1.10,2013-11-26 19:27:00,
2013-11-26 11:42:00,59.6,45.0,30.22,ESE,119,0.0,2.0,60,0.00,,,0.00,weatherlink.com 1.10,2013-11-26 19:42:00,
2013-11-26 11:57:00,60.5,46.0,30.21,ESE,117,0.0,3.0,60,0.00,,,0.00,weatherlink.com 1.10,2013-11-26 19:57:00,
2013-11-26 12:12:00,59.8,45.0,30.20,ESE,117,0.0,2.0,59,0.00,,,0.00,weatherlink.com 1.10,2013-11-26 20:12:00,
2013-11-26 12:27:00,60.6,46.0,30.19,ESE,102,0.0,4.0,58,0.00,,,0.00,weatherlink.com 1.10,2013-11-26 20:27:00,
2013-11-26 12:42:00,60.8,47.0,30.19,East,101,0.0,3.0,60,0.00,,,0.00,weatherlink.com 1.10,2013-11-26 20:42:00,
2013-11-26 12:57:00,61.1,46.0,30.18,North,355,0.0,6.0,57,0.00,,,0.00,weatherlink.com 1.10,2013-11-26 20:57:00,
2013-11-26 13:27:00,60.8,46.0,30.16,North,355,0.0,1.0,58,0.00,,,0.00,weatherlink.com 1.10,2013-11-26 21:27:00,
2013-11-26 13:42:00,61.1,46.0,30.15,SE,124,1.0,2.0,57,0.00,,,0.00,weatherlink.com 1.10,2013-11-26 21:42:00,
2013-11-26 13:57:00,61.2,47.0,30.15,SSE,150,0.0,1.0,59,0.00,,,0.00,weatherlink.com 1.10,2013-11-26 21:57:00,
2013-11-26 14:13:00,61.3,46.0,30.15,ESE,112,0.0,1.0,58,0.00,,,0.00,weatherlink.com 1.10,2013-11-26 22:13:00,
2013-11-26 14:27:00,61.8,46.0,30.14,ESE,112,0.0,1.0,57,0.00,,,0.00,weatherlink.com 1.10,2013-11-26 22:27:00,
2013-11-26 14:43:00,61.5,46.0,30.14,ESE,112,0.0,2.0,58,0.00,,,0.00,weatherlink.com 1.10,2013-11-26 22:43:00,
2013-11-26 14:58:00,60.9,46.0,30.13,ESE,113,0.0,2.0,59,0.00,,,0.00,weatherlink.com 1.10,2013-11-26 22:58:00,
2013-11-26 15:13:00,60.1,46.0,30.13,ESE,113,0.0,1.0,60,0.00,,,0.00,weatherlink.com 1.10,2013-11-26 23:13:00,
2013-11-26 15:28:00,59.4,46.0,30.13,ESE,119,0.0,2.0,61,0.00,,,0.00,weatherlink.com 1.10,2013-11-26 23:28:00,
2013-11-26 15:43:00,59.0,46.0,30.13,ESE,119,0.0,1.0,62,0.00,,,0.00,weatherlink.com 1.10,2013-11-26 23:43:00,
2013-11-26 15:58:00,58.6,45.0,30.11,ESE,119,0.0,1.0,62,0.00,,,0.00,weatherlink.com 1.10,2013-11-26 23:58:00,
2013-11-26 16:13:00,58.2,45.0,30.11,ESE,119,0.0,0.0,63,0.00,,,0.00,weatherlink.com 1.10,2013-11-27 00:13:00,
2013-11-26 16:28:00,57.6,46.0,30.11,ESE,119,0.0,0.0,65,0.00,,,0.00,weatherlink.com 1.10,2013-11-27 00:28:00,
2013-11-26 16:43:00,56.5,46.0,30.11,ESE,119,0.0,0.0,67,0.00,,,0.00,weatherlink.com 1.10,2013-11-27 00:43:00,
2013-11-26 16:58:00,55.3,45.0,30.11,ESE,119,0.0,0.0,69,0.00,,,0.00,weatherlink.com 1.10,2013-11-27 00:58:00,
2013-11-26 17:13:00,54.2,45.0,30.11,ESE,119,0.0,0.0,71,0.00,,,0.00,weatherlink.com 1.10,2013-11-27 01:13:00,
2013-11-26 17:28:00,53.3,45.0,30.11,ESE,119,0.0,0.0,73,0.00,,,0.00,weatherlink.com 1.10,2013-11-27 01:28:00,
2013-11-26 17:43:00,52.1,44.0,30.11,ESE,119,0.0,0.0,75,0.00,,,0.00,weatherlink.com 1.10,2013-11-27 01:43:00,
2013-11-26 17:58:00,51.2,44.0,30.11,ESE,119,0.0,0.0,77,0.00,,,0.00,weatherlink.com 1.10,2013-11-27 01:58:00,
2013-11-26 18:13:00,50.5,44.0,30.11,ESE,119,0.0,0.0,78,0.00,,,0.00,weatherlink.com 1.10,2013-11-27 02:13:00,
2013-11-26 18:28:00,49.9,44.0,30.11,ESE,119,0.0,0.0,79,0.00,,,0.00,weatherlink.com 1.10,2013-11-27 02:28:00,
2013-11-26 18:43:00,49.5,44.0,30.11,ESE,119,0.0,0.0,80,0.00,,,0.00,weatherlink.com 1.10,2013-11-27 02:43:00,
2013-11-26 18:58:00,49.1,44.0,30.11,ESE,119,0.0,0.0,81,0.00,,,0.00,weatherlink.com 1.10,2013-11-27 02:58:00,
2013-11-26 19:13:00,48.9,43.0,30.12,ESE,119,0.0,0.0,81,0.00,,,0.00,weatherlink.com 1.10,2013-11-27 03:13:00,
2013-11-26 19:28:00,48.7,43.0,30.11,ESE,119,0.0,0.0,82,0.00,,,0.00,weatherlink.com 1.10,2013-11-27 03:28:00,
2013-11-26 19:43:00,48.5,44.0,30.11,ESE,119,0.0,0.0,83,0.00,,,0.00,weatherlink.com 1.10,2013-11-27 03:43:00,
2013-11-26 19:58:00,48.4,44.0,30.11,ESE,119,0.0,0.0,83,0.00,,,0.00,weatherlink.com 1.10,2013-11-27 03:58:00,
2013-11-26 20:13:00,48.2,43.0,30.11,ESE,119,0.0,0.0,83,0.00,,,0.00,weatherlink.com 1.10,2013-11-27 04:13:00,
2013-11-26 20:28:00,48.0,43.0,30.11,ESE,119,0.0,0.0,83,0.00,,,0.00,weatherlink.com 1.10,2013-11-27 04:28:00,
2013-11-26 20:43:00,47.7,43.0,30.11,ESE,119,0.0,0.0,84,0.00,,,0.00,weatherlink.com 1.10,2013-11-27 04:43:00,
2013-11-26 20:58:00,47.4,43.0,30.11,ESE,119,0.0,0.0,84,0.00,,,0.00,weatherlink.com 1.10,2013-11-27 04:58:00,
2013-11-26 21:13:00,47.3,43.0,30.11,ESE,119,0.0,0.0,85,0.00,,,0.00,weatherlink.com 1.10,2013-11-27 05:13:00,
2013-11-26 21:28:00,47.2,43.0,30.11,ESE,119,0.0,0.0,85,0.00,,,0.00,weatherlink.com 1.10,2013-11-27 05:28:00,
2013-11-26 21:43:00,47.0,43.0,30.11,ESE,119,0.0,0.0,85,0.00,,,0.00,weatherlink.com 1.10,2013-11-27 05:43:00,
2013-11-26 21:58:00,46.9,43.0,30.11,ESE,119,0.0,0.0,85,0.00,,,0.00,weatherlink.com 1.10,2013-11-27 05:58:00,
2013-11-26 22:13:00,46.6,42.0,30.10,ESE,119,0.0,0.0,85,0.00,,,0.00,weatherlink.com 1.10,2013-11-27 06:13:00,
2013-11-26 22:28:00,46.3,42.0,30.10,ESE,119,0.0,0.0,85,0.00,,,0.00,weatherlink.com 1.10,2013-11-27 06:28:00,
2013-11-26 22:43:00,45.8,42.0,30.09,ESE,119,0.0,0.0,86,0.00,,,0.00,weatherlink.com 1.10,2013-11-27 06:43:00,
2013-11-26 22:58:00,45.4,42.0,30.09,ESE,119,0.0,0.0,87,0.00,,,0.00,weatherlink.com 1.10,2013-11-27 06:58:00,
2013-11-26 23:13:00,45.1,42.0,30.09,ESE,119,0.0,0.0,87,0.00,,,0.00,weatherlink.com 1.10,2013-11-27 07:13:00,
2013-11-26 23:28:00,44.5,41.0,30.09,ESE,119,0.0,0.0,87,0.00,,,0.00,weatherlink.com 1.10,2013-11-27 07:28:00,
2013-11-26 23:43:00,44.1,41.0,30.09,ESE,119,0.0,0.0,87,0.00,,,0.00,weatherlink.com 1.10,2013-11-27 07:43:00,
2013-11-26 23:58:00,43.8,41.0,30.08,ESE,119,0.0,0.0,88,0.00,,,0.00,weatherlink.com 1.10,2013-11-27 07:58:00,